createdAt,value
2018-02-13T00:00:16.969Z,1.50
2018-02-13T00:00:50.631Z,1.50
2018-02-13T00:01:25.132Z,1.50
2018-02-13T00:01:58.807Z,1.50
2018-02-13T00:02:32.278Z,1.50
2018-02-13T00:03:06.629Z,1.50
2018-02-13T00:03:41.449Z,1.40
2018-02-13T00:04:15.899Z,1.40
2018-02-13T00:04:49.572Z,1.40
2018-02-13T00:05:23.445Z,1.40
2018-02-13T00:05:57.112Z,1.40
2018-02-13T00:06:30.783Z,1.40
2018-02-13T00:07:04.464Z,1.40
2018-02-13T00:07:38.133Z,1.40
2018-02-13T00:08:11.546Z,1.30
2018-02-13T00:08:45.212Z,1.30
2018-02-13T00:09:18.873Z,1.30
2018-02-13T00:09:52.526Z,1.30
2018-02-13T00:10:26.192Z,1.30
2018-02-13T00:10:59.854Z,1.30
2018-02-13T00:11:33.535Z,1.30
2018-02-13T00:12:07.414Z,1.30
2018-02-13T00:12:41.086Z,1.30
2018-02-13T00:13:15.185Z,1.30
2018-02-13T00:13:49.899Z,1.20
2018-02-13T00:14:24.362Z,1.20
2018-02-13T00:14:58.034Z,1.20
2018-02-13T00:15:31.694Z,1.20
2018-02-13T00:16:06.114Z,1.20
2018-02-13T00:16:39.763Z,1.20
2018-02-13T00:17:13.430Z,1.20
2018-02-13T00:17:47.081Z,1.20
2018-02-13T00:18:20.758Z,1.20
2018-02-13T00:18:55.590Z,1.20
2018-02-13T00:19:29.254Z,1.10
2018-02-13T00:20:03.696Z,1.20
2018-02-13T00:20:37.352Z,1.20
2018-02-13T00:21:11.763Z,1.20
2018-02-13T00:21:46.190Z,1.20
2018-02-13T00:22:19.850Z,1.20
2018-02-13T00:22:53.620Z,1.20
2018-02-13T00:23:27.275Z,1.20
2018-02-13T00:24:01.232Z,1.20
2018-02-13T00:24:35.655Z,1.20
2018-02-13T00:25:09.318Z,1.20
2018-02-13T00:25:42.968Z,1.20
2018-02-13T00:26:16.618Z,1.20
2018-02-13T00:26:50.285Z,1.20
2018-02-13T00:27:23.951Z,1.20
2018-02-13T00:27:57.607Z,1.20
2018-02-13T00:28:32.118Z,1.20
2018-02-13T00:29:06.074Z,1.20
2018-02-13T00:29:40.507Z,1.10
2018-02-13T00:30:14.170Z,1.20
2018-02-13T00:30:48.609Z,1.20
2018-02-13T00:31:22.268Z,1.10
2018-02-13T00:31:56.696Z,1.10
2018-02-13T00:32:30.375Z,1.10
2018-02-13T00:33:05.321Z,1.10
2018-02-13T00:33:38.973Z,1.10
2018-02-13T00:34:13.727Z,1.10
2018-02-13T00:34:47.377Z,1.10
2018-02-13T00:35:21.817Z,1.10
2018-02-13T00:35:55.477Z,1.10
2018-02-13T00:36:29.942Z,1.10
2018-02-13T00:37:03.603Z,1.10
2018-02-13T00:37:37.262Z,1.10
2018-02-13T00:38:11.683Z,1.10
2018-02-13T00:38:45.526Z,1.10
2018-02-13T00:39:19.193Z,1.00
2018-02-13T00:39:52.876Z,1.00
2018-02-13T00:40:26.543Z,1.00
2018-02-13T00:41:00.965Z,1.00
2018-02-13T00:41:34.618Z,1.00
2018-02-13T00:42:08.290Z,1.00
2018-02-13T00:42:41.954Z,1.00
2018-02-13T00:43:15.607Z,1.00
2018-02-13T00:43:49.280Z,1.00
2018-02-13T00:44:23.284Z,1.00
2018-02-13T00:44:57.722Z,1.00
2018-02-13T00:45:31.380Z,1.00
2018-02-13T00:46:05.816Z,1.00
2018-02-13T00:46:39.487Z,1.00
2018-02-13T00:47:13.156Z,1.00
2018-02-13T00:47:46.814Z,1.00
2018-02-13T00:48:20.474Z,1.00
2018-02-13T00:48:54.154Z,1.00
2018-02-13T00:49:27.840Z,1.00
2018-02-13T00:50:01.494Z,1.00
2018-02-13T00:50:35.155Z,0.90
2018-02-13T00:51:08.808Z,0.90
2018-02-13T00:51:42.464Z,0.90
2018-02-13T00:52:16.127Z,0.90
2018-02-13T00:52:49.827Z,0.90
2018-02-13T00:53:23.498Z,0.90
2018-02-13T00:53:57.157Z,0.90
2018-02-13T00:54:30.826Z,0.90
2018-02-13T00:55:05.245Z,0.90
2018-02-13T00:55:39.672Z,0.90
2018-02-13T00:56:13.372Z,0.90
2018-02-13T00:56:47.034Z,0.90
2018-02-13T00:57:20.363Z,0.90
2018-02-13T00:57:54.040Z,0.90
2018-02-13T00:58:27.706Z,0.90
2018-02-13T00:59:01.366Z,0.90
2018-02-13T00:59:35.044Z,0.80
2018-02-13T01:00:08.408Z,0.80
2018-02-13T01:00:42.061Z,0.80
2018-02-13T01:01:15.714Z,0.80
2018-02-13T01:01:50.153Z,0.80
2018-02-13T01:02:23.814Z,0.80
2018-02-13T01:02:58.233Z,0.80
2018-02-13T01:03:32.642Z,0.80
2018-02-13T01:04:07.079Z,0.80
2018-02-13T01:04:40.768Z,0.80
2018-02-13T01:05:14.431Z,0.80
2018-02-13T01:05:48.101Z,0.80
2018-02-13T01:06:21.419Z,0.80
2018-02-13T01:06:55.064Z,0.80
2018-02-13T01:07:28.715Z,0.80
2018-02-13T01:08:02.375Z,0.80
2018-02-13T01:08:36.031Z,0.80
2018-02-13T01:09:09.691Z,0.80
2018-02-13T01:09:43.374Z,0.70
2018-02-13T01:10:17.031Z,0.70
2018-02-13T01:10:50.694Z,0.70
2018-02-13T01:11:25.184Z,0.70
2018-02-13T01:11:59.001Z,0.70
2018-02-13T01:12:33.422Z,0.60
2018-02-13T01:13:07.078Z,0.70
2018-02-13T01:13:40.730Z,0.60
2018-02-13T01:14:14.386Z,0.60
2018-02-13T01:14:48.054Z,0.60
2018-02-13T01:15:21.767Z,0.60
2018-02-13T01:15:56.183Z,0.60
2018-02-13T01:16:29.840Z,0.60
2018-02-13T01:17:03.497Z,0.60
2018-02-13T01:17:37.169Z,0.60
2018-02-13T01:18:10.834Z,0.60
2018-02-13T01:18:44.484Z,0.60
2018-02-13T01:19:18.136Z,0.60
2018-02-13T01:19:51.798Z,0.50
2018-02-13T01:20:26.214Z,0.50
2018-02-13T01:20:59.874Z,0.50
2018-02-13T01:21:33.536Z,0.50
2018-02-13T01:22:07.222Z,0.50
2018-02-13T01:22:40.895Z,0.50
2018-02-13T01:23:14.551Z,0.50
2018-02-13T01:23:49.086Z,0.40
2018-02-13T01:24:22.756Z,0.50
2018-02-13T01:24:56.725Z,0.40
2018-02-13T01:25:30.363Z,0.40
2018-02-13T01:26:03.694Z,0.40
2018-02-13T01:26:37.351Z,0.40
2018-02-13T01:27:11.028Z,0.40
2018-02-13T01:27:44.683Z,0.40
2018-02-13T01:28:19.228Z,0.40
2018-02-13T01:28:52.884Z,0.40
2018-02-13T01:29:27.315Z,0.40
2018-02-13T01:30:01.254Z,0.30
2018-02-13T01:30:36.414Z,0.30
2018-02-13T01:31:10.097Z,0.30
2018-02-13T01:31:44.510Z,0.30
2018-02-13T01:32:18.173Z,0.30
2018-02-13T01:32:51.828Z,0.30
2018-02-13T01:33:25.490Z,0.30
2018-02-13T01:33:59.345Z,0.30
2018-02-13T01:34:32.998Z,0.20
2018-02-13T01:35:07.046Z,0.20
2018-02-13T01:35:41.491Z,0.20
2018-02-13T01:36:15.151Z,0.20
2018-02-13T01:36:48.810Z,0.20
2018-02-13T01:37:22.470Z,0.20
2018-02-13T01:37:56.133Z,0.20
2018-02-13T01:38:29.632Z,0.20
2018-02-13T01:39:02.779Z,0.20
2018-02-13T01:39:36.493Z,0.20
2018-02-13T01:40:10.651Z,0.10
2018-02-13T01:40:45.082Z,0.10
2018-02-13T01:41:18.751Z,0.10
2018-02-13T01:41:53.205Z,0.10
2018-02-13T01:42:26.870Z,0.10
2018-02-13T01:43:00.595Z,0.10
2018-02-13T01:43:34.250Z,0.10
2018-02-13T01:44:08.691Z,0.10
2018-02-13T01:44:42.369Z,0.10
2018-02-13T01:45:16.058Z,0.10
2018-02-13T01:45:49.718Z,0.10
2018-02-13T01:46:24.152Z,0.10
2018-02-13T01:46:57.809Z,0.10
2018-02-13T01:47:32.248Z,0.10
2018-02-13T01:48:05.907Z,0.10
2018-02-13T01:48:40.343Z,0.10
2018-02-13T01:49:14.001Z,0.10
2018-02-13T01:49:48.498Z,0.10
2018-02-13T01:50:26.449Z,0.10
2018-02-13T01:51:00.109Z,0.10
2018-02-13T01:51:33.767Z,0.10
2018-02-13T01:52:07.456Z,0.10
2018-02-13T01:52:41.107Z,0.10
2018-02-13T01:53:14.592Z,0.10
2018-02-13T01:53:48.269Z,0.10
2018-02-13T01:54:21.939Z,0.10
2018-02-13T01:54:55.588Z,0.10
2018-02-13T01:55:29.265Z,0.10
2018-02-13T01:56:02.936Z,0.10
2018-02-13T01:56:36.597Z,0.20
2018-02-13T01:57:10.269Z,0.20
2018-02-13T01:57:44.726Z,0.20
2018-02-13T01:58:18.386Z,0.20
2018-02-13T01:58:52.139Z,0.20
2018-02-13T01:59:25.814Z,0.20
2018-02-13T01:59:59.501Z,0.20
2018-02-13T02:00:34.503Z,0.20
2018-02-13T02:01:08.165Z,0.20
2018-02-13T02:01:41.873Z,0.30
2018-02-13T02:02:20.693Z,0.30
2018-02-13T02:02:54.349Z,0.30
2018-02-13T02:03:27.998Z,0.30
2018-02-13T02:04:01.652Z,0.40
2018-02-13T02:04:35.319Z,0.40
2018-02-13T02:05:08.977Z,0.40
2018-02-13T02:05:42.649Z,0.40
2018-02-13T02:06:16.301Z,0.40
2018-02-13T02:06:49.958Z,0.40
2018-02-13T02:07:24.407Z,0.50
2018-02-13T02:07:58.061Z,0.40
2018-02-13T02:08:32.497Z,0.50
2018-02-13T02:09:05.833Z,0.40
2018-02-13T02:09:40.267Z,0.50
2018-02-13T02:10:13.932Z,0.40
2018-02-13T02:10:48.638Z,0.50
2018-02-13T02:11:22.302Z,0.40
2018-02-13T02:11:55.960Z,0.50
2018-02-13T02:12:29.621Z,0.50
2018-02-13T02:13:04.334Z,0.50
2018-02-13T02:13:38.770Z,0.50
2018-02-13T02:14:12.517Z,0.40
2018-02-13T02:14:46.165Z,0.50
2018-02-13T02:15:19.812Z,0.50
2018-02-13T02:15:54.611Z,0.50
2018-02-13T02:16:28.261Z,0.40
2018-02-13T02:17:01.935Z,0.50
2018-02-13T02:17:35.597Z,0.50
2018-02-13T02:18:09.688Z,0.50
2018-02-13T02:18:44.130Z,0.50
2018-02-13T02:19:17.796Z,0.50
2018-02-13T02:19:52.215Z,0.50
2018-02-13T02:20:25.532Z,0.40
2018-02-13T02:20:59.566Z,0.50
2018-02-13T02:21:34.012Z,0.50
2018-02-13T02:22:07.664Z,0.40
2018-02-13T02:22:42.090Z,0.50
2018-02-13T02:23:16.501Z,0.50
2018-02-13T02:23:50.154Z,0.40
2018-02-13T02:24:23.810Z,0.50
2018-02-13T02:24:57.138Z,0.40
2018-02-13T02:25:31.569Z,0.40
2018-02-13T02:26:05.274Z,0.50
2018-02-13T02:26:38.937Z,0.40
2018-02-13T02:27:13.345Z,0.40
2018-02-13T02:27:47.754Z,0.40
2018-02-13T02:28:22.181Z,0.40
2018-02-13T02:28:55.846Z,0.40
2018-02-13T02:29:30.300Z,0.40
2018-02-13T02:30:03.638Z,0.40
2018-02-13T02:30:38.062Z,0.30
2018-02-13T02:31:12.042Z,0.40
2018-02-13T02:31:46.483Z,0.30
2018-02-13T02:32:20.134Z,0.30
2018-02-13T02:32:54.581Z,0.30
2018-02-13T02:33:28.240Z,0.30
2018-02-13T02:34:01.906Z,0.30
2018-02-13T02:34:35.573Z,0.30
2018-02-13T02:35:09.235Z,0.20
2018-02-13T02:35:42.909Z,0.20
2018-02-13T02:36:16.619Z,0.20
2018-02-13T02:36:50.277Z,0.20
2018-02-13T02:37:24.700Z,0.20
2018-02-13T02:37:58.365Z,0.20
2018-02-13T02:38:32.780Z,0.20
2018-02-13T02:39:06.445Z,0.20
2018-02-13T02:39:40.110Z,0.20
2018-02-13T02:40:13.778Z,0.10
2018-02-13T02:40:47.454Z,0.10
2018-02-13T02:41:21.421Z,0.10
2018-02-13T02:41:55.834Z,0.10
2018-02-13T02:42:41.386Z,0.10
2018-02-13T02:43:15.076Z,0.10
2018-02-13T02:43:48.745Z,0.10
2018-02-13T02:44:22.606Z,0.10
2018-02-13T02:44:56.262Z,0.10
2018-02-13T02:45:30.687Z,0.10
2018-02-13T02:46:04.362Z,0.10
2018-02-13T02:46:38.801Z,0.10
2018-02-13T02:47:12.461Z,0.00
2018-02-13T02:47:46.142Z,0.00
2018-02-13T02:48:20.588Z,0.00
2018-02-13T02:48:54.249Z,0.00
2018-02-13T02:49:27.916Z,0.00
2018-02-13T02:50:02.338Z,0.00
2018-02-13T02:50:36.750Z,0.00
2018-02-13T02:51:11.193Z,0.00
2018-02-13T02:51:44.875Z,0.00
2018-02-13T02:52:18.530Z,0.00
2018-02-13T02:52:53.004Z,0.00
2018-02-13T02:53:26.666Z,-0.10
2018-02-13T02:54:00.318Z,0.00
2018-02-13T02:54:34.760Z,-0.10
2018-02-13T02:55:08.414Z,-0.10
2018-02-13T02:55:42.858Z,-0.10
2018-02-13T02:56:16.521Z,-0.10
2018-02-13T02:56:50.510Z,-0.10
2018-02-13T02:57:24.949Z,-0.10
2018-02-13T02:57:58.607Z,-0.10
2018-02-13T02:58:33.037Z,-0.10
2018-02-13T02:59:06.698Z,-0.20
2018-02-13T02:59:41.134Z,-0.10
2018-02-13T03:00:14.813Z,-0.10
2018-02-13T03:00:48.475Z,-0.20
2018-02-13T03:01:22.913Z,-0.20
2018-02-13T03:01:56.614Z,-0.20
2018-02-13T03:02:30.274Z,-0.20
2018-02-13T03:03:04.704Z,-0.20
2018-02-13T03:03:38.374Z,-0.20
2018-02-13T03:04:12.811Z,-0.20
2018-02-13T03:04:46.479Z,-0.20
2018-02-13T03:05:20.154Z,-0.20
2018-02-13T03:05:54.593Z,-0.20
2018-02-13T03:06:28.250Z,-0.20
2018-02-13T03:07:03.123Z,-0.30
2018-02-13T03:07:37.057Z,-0.30
2018-02-13T03:08:11.506Z,-0.30
2018-02-13T03:08:45.198Z,-0.30
2018-02-13T03:09:18.856Z,-0.30
2018-02-13T03:09:53.290Z,-0.30
2018-02-13T03:10:26.962Z,-0.30
2018-02-13T03:11:00.639Z,-0.30
2018-02-13T03:11:35.077Z,-0.30
2018-02-13T03:12:09.042Z,-0.30
2018-02-13T03:12:43.492Z,-0.30
2018-02-13T03:13:17.174Z,-0.40
2018-02-13T03:13:50.866Z,-0.30
2018-02-13T03:14:24.554Z,-0.30
2018-02-13T03:14:58.237Z,-0.30
2018-02-13T03:15:31.922Z,-0.30
2018-02-13T03:16:05.667Z,-0.30
2018-02-13T03:16:39.330Z,-0.30
2018-02-13T03:17:13.048Z,-0.30
2018-02-13T03:17:46.718Z,-0.30
2018-02-13T03:18:20.393Z,-0.30
2018-02-13T03:18:54.068Z,-0.30
2018-02-13T03:19:27.609Z,-0.30
2018-02-13T03:20:01.412Z,-0.30
2018-02-13T03:20:35.852Z,-0.30
2018-02-13T03:21:09.509Z,-0.30
2018-02-13T03:21:43.947Z,-0.30
2018-02-13T03:22:17.632Z,-0.30
2018-02-13T03:22:51.309Z,-0.30
2018-02-13T03:23:24.988Z,-0.30
2018-02-13T03:23:59.429Z,-0.30
2018-02-13T03:24:33.130Z,-0.30
2018-02-13T03:25:06.477Z,-0.30
2018-02-13T03:25:40.154Z,-0.30
2018-02-13T03:26:14.595Z,-0.20
2018-02-13T03:26:48.278Z,-0.30
2018-02-13T03:27:22.242Z,-0.20
2018-02-13T03:27:56.685Z,-0.20
2018-02-13T03:28:30.350Z,-0.20
2018-02-13T03:29:04.445Z,-0.20
2018-02-13T03:29:38.880Z,-0.20
2018-02-13T03:30:12.554Z,-0.20
2018-02-13T03:30:46.222Z,-0.20
2018-02-13T03:31:20.654Z,-0.20
2018-02-13T03:31:54.322Z,-0.20
2018-02-13T03:32:28.778Z,-0.20
2018-02-13T03:33:02.454Z,-0.20
2018-02-13T03:33:36.125Z,-0.20
2018-02-13T03:34:09.794Z,-0.20
2018-02-13T03:34:44.240Z,-0.20
2018-02-13T03:35:17.802Z,-0.20
2018-02-13T03:35:51.621Z,-0.20
2018-02-13T03:36:25.299Z,-0.20
2018-02-13T03:36:59.167Z,-0.20
2018-02-13T03:37:33.983Z,-0.30
2018-02-13T03:38:08.426Z,-0.30
2018-02-13T03:38:42.102Z,-0.30
2018-02-13T03:39:15.778Z,-0.30
2018-02-13T03:39:50.218Z,-0.30
2018-02-13T03:40:23.892Z,-0.30
2018-02-13T03:40:57.581Z,-0.30
2018-02-13T03:41:31.262Z,-0.30
2018-02-13T03:42:04.932Z,-0.30
2018-02-13T03:42:39.754Z,-0.30
2018-02-13T03:43:14.191Z,-0.30
2018-02-13T03:43:47.883Z,-0.40
2018-02-13T03:44:21.562Z,-0.30
2018-02-13T03:44:54.908Z,-0.30
2018-02-13T03:45:28.257Z,-0.30
2018-02-13T03:46:01.930Z,-0.30
2018-02-13T03:46:35.616Z,-0.30
2018-02-13T03:47:09.294Z,-0.30
2018-02-13T03:47:42.993Z,-0.30
2018-02-13T03:48:16.694Z,-0.20
2018-02-13T03:48:50.372Z,-0.20
2018-02-13T03:49:24.046Z,-0.20
2018-02-13T03:49:57.716Z,-0.20
2018-02-13T03:50:32.172Z,-0.20
2018-02-13T03:51:05.866Z,-0.20
2018-02-13T03:51:39.542Z,-0.20
2018-02-13T03:52:13.236Z,-0.20
2018-02-13T03:52:47.191Z,-0.10
2018-02-13T03:53:21.628Z,-0.10
2018-02-13T03:53:55.304Z,-0.10
2018-02-13T03:54:28.971Z,-0.10
2018-02-13T03:55:03.422Z,-0.10
2018-02-13T03:55:37.099Z,-0.10
2018-02-13T03:56:10.777Z,-0.10
2018-02-13T03:56:44.453Z,-0.10
2018-02-13T03:57:19.117Z,-0.10
2018-02-13T03:57:52.814Z,-0.10
2018-02-13T03:58:27.183Z,-0.10
2018-02-13T03:59:00.865Z,-0.10
2018-02-13T03:59:34.543Z,-0.10
2018-02-13T04:00:08.983Z,0.00
2018-02-13T04:00:42.665Z,-0.10
2018-02-13T04:01:16.345Z,-0.10
2018-02-13T04:01:50.018Z,0.00
2018-02-13T04:02:24.459Z,0.00
2018-02-13T04:02:58.419Z,-0.10
2018-02-13T04:03:32.862Z,0.00
2018-02-13T04:04:06.552Z,-0.10
2018-02-13T04:04:40.228Z,-0.10
2018-02-13T04:05:13.899Z,-0.10
2018-02-13T04:05:48.325Z,-0.10
2018-02-13T04:06:22.020Z,-0.10
2018-02-13T04:06:55.684Z,-0.10
2018-02-13T04:07:30.142Z,-0.10
2018-02-13T04:08:03.813Z,-0.10
2018-02-13T04:08:37.506Z,-0.10
2018-02-13T04:09:11.193Z,-0.10
2018-02-13T04:09:44.904Z,-0.10
2018-02-13T04:10:18.593Z,-0.10
2018-02-13T04:10:52.284Z,-0.10
2018-02-13T04:11:25.973Z,-0.10
2018-02-13T04:11:59.666Z,-0.10
2018-02-13T04:12:33.348Z,-0.10
2018-02-13T04:13:07.299Z,-0.10
2018-02-13T04:13:41.738Z,-0.10
2018-02-13T04:14:15.420Z,-0.10
2018-02-13T04:14:49.092Z,-0.10
2018-02-13T04:15:23.361Z,-0.10
2018-02-13T04:15:57.054Z,-0.20
2018-02-13T04:16:30.726Z,-0.20
2018-02-13T04:17:04.405Z,-0.20
2018-02-13T04:17:38.095Z,-0.20
2018-02-13T04:18:11.799Z,-0.20
2018-02-13T04:18:45.465Z,-0.20
2018-02-13T04:19:19.170Z,-0.20
2018-02-13T04:19:52.868Z,-0.20
2018-02-13T04:20:26.587Z,-0.20
2018-02-13T04:21:01.021Z,-0.20
2018-02-13T04:21:35.470Z,-0.20
2018-02-13T04:22:09.151Z,-0.20
2018-02-13T04:22:42.838Z,-0.20
2018-02-13T04:23:16.897Z,-0.20
2018-02-13T04:23:51.349Z,-0.30
2018-02-13T04:24:25.015Z,-0.30
2018-02-13T04:24:58.690Z,-0.30
2018-02-13T04:25:33.143Z,-0.30
2018-02-13T04:26:06.853Z,-0.30
2018-02-13T04:26:40.546Z,-0.30
2018-02-13T04:27:14.219Z,-0.30
2018-02-13T04:27:47.902Z,-0.30
2018-02-13T04:28:21.942Z,-0.30
2018-02-13T04:28:56.397Z,-0.40
2018-02-13T04:29:30.098Z,-0.40
2018-02-13T04:30:03.264Z,-0.30
2018-02-13T04:30:36.761Z,-0.40
2018-02-13T04:31:10.437Z,-0.40
2018-02-13T04:31:44.110Z,-0.40
2018-02-13T04:32:17.767Z,-0.40
2018-02-13T04:32:52.197Z,-0.40
2018-02-13T04:33:25.887Z,-0.40
2018-02-13T04:33:59.563Z,-0.40
2018-02-13T04:34:34.011Z,-0.40
2018-02-13T04:35:07.363Z,-0.40
2018-02-13T04:35:41.038Z,-0.40
2018-02-13T04:36:15.504Z,-0.40
2018-02-13T04:36:49.179Z,-0.40
2018-02-13T04:37:22.842Z,-0.40
2018-02-13T04:37:57.305Z,-0.40
2018-02-13T04:38:30.998Z,-0.40
2018-02-13T04:39:04.018Z,-0.40
2018-02-13T04:39:37.693Z,-0.40
2018-02-13T04:40:12.147Z,-0.40
2018-02-13T04:40:45.838Z,-0.40
2018-02-13T04:41:19.504Z,-0.40
2018-02-13T04:41:53.172Z,-0.40
2018-02-13T04:42:27.626Z,-0.40
2018-02-13T04:43:01.110Z,-0.40
2018-02-13T04:43:34.802Z,-0.40
2018-02-13T04:44:08.489Z,-0.40
2018-02-13T04:44:42.170Z,-0.40
2018-02-13T04:45:15.907Z,-0.40
2018-02-13T04:45:49.581Z,-0.40
2018-02-13T04:46:23.245Z,-0.40
2018-02-13T04:46:56.910Z,-0.40
2018-02-13T04:47:30.584Z,-0.40
2018-02-13T04:48:03.933Z,-0.40
2018-02-13T04:48:37.637Z,-0.40
2018-02-13T04:49:11.342Z,-0.40
2018-02-13T04:49:45.864Z,-0.30
2018-02-13T04:50:19.713Z,-0.40
2018-02-13T04:50:53.397Z,-0.30
2018-02-13T04:51:27.166Z,-0.30
2018-02-13T04:52:00.884Z,-0.30
2018-02-13T04:52:34.564Z,-0.30
2018-02-13T04:53:08.263Z,-0.30
2018-02-13T04:53:41.990Z,-0.30
2018-02-13T04:54:16.616Z,-0.20
2018-02-13T04:54:50.304Z,-0.20
2018-02-13T04:55:23.994Z,-0.20
2018-02-13T04:55:57.646Z,-0.20
2018-02-13T04:56:31.298Z,-0.20
2018-02-13T04:57:04.986Z,-0.20
2018-02-13T04:57:38.674Z,-0.10
2018-02-13T04:58:12.365Z,-0.10
2018-02-13T04:58:46.058Z,-0.10
2018-02-13T04:59:19.743Z,-0.10
2018-02-13T04:59:53.403Z,-0.10
2018-02-13T05:00:27.061Z,-0.10
2018-02-13T05:01:00.733Z,0.00
2018-02-13T05:01:34.400Z,-0.10
2018-02-13T05:02:08.062Z,0.00
2018-02-13T05:02:41.722Z,0.00
2018-02-13T05:03:16.163Z,0.00
2018-02-13T05:03:49.855Z,0.00
2018-02-13T05:04:23.539Z,0.00
2018-02-13T05:04:57.196Z,0.00
2018-02-13T05:05:30.847Z,0.10
2018-02-13T05:06:04.508Z,0.10
2018-02-13T05:06:38.190Z,0.10
2018-02-13T05:07:12.629Z,0.10
2018-02-13T05:07:46.281Z,0.10
2018-02-13T05:08:20.703Z,0.20
2018-02-13T05:08:54.417Z,0.20
2018-02-13T05:09:28.101Z,0.20
2018-02-13T05:10:01.767Z,0.20
2018-02-13T05:10:35.444Z,0.20
2018-02-13T05:11:09.868Z,0.20
2018-02-13T05:11:43.557Z,0.20
2018-02-13T05:12:17.247Z,0.20
2018-02-13T05:12:50.934Z,0.20
2018-02-13T05:13:24.615Z,0.20
2018-02-13T05:13:59.361Z,0.20
2018-02-13T05:14:33.022Z,0.20
2018-02-13T05:15:07.519Z,0.20
2018-02-13T05:15:41.946Z,0.30
2018-02-13T05:16:16.385Z,0.30
2018-02-13T05:16:50.042Z,0.20
2018-02-13T05:17:24.478Z,0.30
2018-02-13T05:17:58.165Z,0.20
2018-02-13T05:18:31.849Z,0.20
2018-02-13T05:19:05.543Z,0.30
2018-02-13T05:19:39.207Z,0.30
2018-02-13T05:20:13.647Z,0.30
2018-02-13T05:20:47.301Z,0.30
2018-02-13T05:21:21.875Z,0.30
2018-02-13T05:21:55.533Z,0.30
2018-02-13T05:22:29.185Z,0.30
2018-02-13T05:23:03.626Z,0.30
2018-02-13T05:23:37.284Z,0.30
2018-02-13T05:24:11.739Z,0.30
2018-02-13T05:24:45.419Z,0.30
2018-02-13T05:25:19.094Z,0.30
2018-02-13T05:25:52.758Z,0.30
2018-02-13T05:26:27.198Z,0.30
2018-02-13T05:27:00.883Z,0.30
2018-02-13T05:27:34.548Z,0.30
2018-02-13T05:28:08.986Z,0.30
2018-02-13T05:28:42.670Z,0.30
2018-02-13T05:29:16.765Z,0.30
2018-02-13T05:29:50.438Z,0.30
2018-02-13T05:30:24.127Z,0.30
2018-02-13T05:30:58.579Z,0.30
2018-02-13T05:31:32.276Z,0.30
2018-02-13T05:32:05.933Z,0.30
2018-02-13T05:32:39.599Z,0.30
2018-02-13T05:33:13.278Z,0.30
2018-02-13T05:33:47.745Z,0.30
2018-02-13T05:34:21.437Z,0.30
2018-02-13T05:34:55.100Z,0.30
2018-02-13T05:35:28.763Z,0.30
2018-02-13T05:36:03.632Z,0.30
2018-02-13T05:36:37.315Z,0.30
2018-02-13T05:37:11.003Z,0.30
2018-02-13T05:37:44.677Z,0.30
2018-02-13T05:38:18.353Z,0.30
2018-02-13T05:38:52.029Z,0.30
2018-02-13T05:39:26.786Z,0.30
2018-02-13T05:40:00.486Z,0.30
2018-02-13T05:40:34.158Z,0.30
2018-02-13T05:41:07.898Z,0.30
2018-02-13T05:41:41.563Z,0.30
2018-02-13T05:42:15.227Z,0.30
2018-02-13T05:42:48.906Z,0.30
2018-02-13T05:43:22.569Z,0.30
2018-02-13T05:43:57.010Z,0.20
2018-02-13T05:44:30.704Z,0.20
2018-02-13T05:45:04.357Z,0.20
2018-02-13T05:45:38.798Z,0.20
2018-02-13T05:46:12.483Z,0.20
2018-02-13T05:46:46.150Z,0.20
2018-02-13T05:47:19.831Z,0.10
2018-02-13T05:47:54.263Z,0.10
2018-02-13T05:48:27.748Z,0.10
2018-02-13T05:49:01.407Z,0.10
2018-02-13T05:49:36.142Z,0.10
2018-02-13T05:50:09.827Z,0.00
2018-02-13T05:50:44.254Z,0.10
2018-02-13T05:51:17.924Z,0.00
2018-02-13T05:51:51.602Z,0.00
2018-02-13T05:52:26.042Z,0.00
2018-02-13T05:52:59.697Z,0.00
2018-02-13T05:53:34.138Z,0.00
2018-02-13T05:54:07.808Z,0.00
2018-02-13T05:54:42.086Z,-0.10
2018-02-13T05:55:16.529Z,0.00
2018-02-13T05:55:50.201Z,-0.10
2018-02-13T05:56:24.635Z,-0.10
2018-02-13T05:56:58.326Z,-0.10
2018-02-13T05:57:32.007Z,-0.10
2018-02-13T05:58:05.698Z,-0.10
2018-02-13T05:58:39.365Z,-0.10
2018-02-13T05:59:13.876Z,-0.10
2018-02-13T05:59:47.714Z,-0.10
2018-02-13T06:00:21.409Z,-0.10
2018-02-13T06:00:55.094Z,-0.10
2018-02-13T06:01:28.787Z,-0.20
2018-02-13T06:02:02.454Z,-0.20
2018-02-13T06:02:36.137Z,-0.20
2018-02-13T06:03:09.845Z,-0.20
2018-02-13T06:03:43.526Z,-0.20
2018-02-13T06:04:17.210Z,-0.20
2018-02-13T06:04:50.975Z,-0.20
2018-02-13T06:05:25.424Z,-0.20
2018-02-13T06:05:59.095Z,-0.20
2018-02-13T06:06:32.585Z,-0.20
2018-02-13T06:07:06.248Z,-0.20
2018-02-13T06:07:40.685Z,-0.30
2018-02-13T06:08:14.363Z,-0.30
2018-02-13T06:08:48.122Z,-0.30
2018-02-13T06:09:21.804Z,-0.30
2018-02-13T06:09:55.820Z,-0.30
2018-02-13T06:10:30.260Z,-0.30
2018-02-13T06:11:03.934Z,-0.30
2018-02-13T06:11:37.610Z,-0.30
2018-02-13T06:12:12.057Z,-0.30
2018-02-13T06:12:45.727Z,-0.30
2018-02-13T06:13:19.399Z,-0.30
2018-02-13T06:13:53.841Z,-0.30
2018-02-13T06:14:27.537Z,-0.30
2018-02-13T06:15:01.229Z,-0.30
2018-02-13T06:15:34.909Z,-0.30
2018-02-13T06:16:08.584Z,-0.30
2018-02-13T06:16:42.265Z,-0.40
2018-02-13T06:17:15.937Z,-0.40
2018-02-13T06:17:50.372Z,-0.40
2018-02-13T06:18:24.034Z,-0.40
2018-02-13T06:18:58.467Z,-0.40
2018-02-13T06:19:32.145Z,-0.40
2018-02-13T06:20:06.127Z,-0.40
2018-02-13T06:20:40.565Z,-0.40
2018-02-13T06:21:14.270Z,-0.40
2018-02-13T06:21:47.400Z,-0.40
2018-02-13T06:22:21.874Z,-0.40
2018-02-13T06:22:55.700Z,-0.40
2018-02-13T06:23:30.134Z,-0.40
2018-02-13T06:24:03.818Z,-0.40
2018-02-13T06:24:37.483Z,-0.40
2018-02-13T06:25:12.302Z,-0.40
2018-02-13T06:25:46.742Z,-0.40
2018-02-13T06:26:20.436Z,-0.50
2018-02-13T06:26:54.134Z,-0.40
2018-02-13T06:27:27.811Z,-0.40
2018-02-13T06:28:01.485Z,-0.40
2018-02-13T06:28:35.160Z,-0.40
2018-02-13T06:29:09.594Z,-0.50
2018-02-13T06:29:43.437Z,-0.50
2018-02-13T06:30:17.130Z,-0.50
2018-02-13T06:30:50.146Z,-0.50
2018-02-13T06:31:23.810Z,-0.50
2018-02-13T06:31:57.909Z,-0.50
2018-02-13T06:32:32.350Z,-0.50
2018-02-13T06:33:06.038Z,-0.50
2018-02-13T06:33:39.699Z,-0.50
2018-02-13T06:34:14.146Z,-0.50
2018-02-13T06:34:47.634Z,-0.50
2018-02-13T06:35:21.526Z,-0.50
2018-02-13T06:35:55.217Z,-0.40
2018-02-13T06:36:28.574Z,-0.40
2018-02-13T06:37:02.242Z,-0.40
2018-02-13T06:37:36.694Z,-0.40
2018-02-13T06:38:10.393Z,-0.50
2018-02-13T06:38:44.092Z,-0.40
2018-02-13T06:39:17.770Z,-0.40
2018-02-13T06:39:51.456Z,-0.40
2018-02-13T06:40:25.102Z,-0.40
2018-02-13T06:40:59.596Z,-0.40
2018-02-13T06:41:33.262Z,-0.50
2018-02-13T06:42:06.971Z,-0.40
2018-02-13T06:42:40.659Z,-0.40
2018-02-13T06:43:14.330Z,-0.40
2018-02-13T06:43:48.016Z,-0.40
2018-02-13T06:44:21.715Z,-0.40
2018-02-13T06:44:55.382Z,-0.40
2018-02-13T06:45:29.184Z,-0.40
2018-02-13T06:46:02.941Z,-0.40
2018-02-13T06:46:36.616Z,-0.40
2018-02-13T06:47:11.061Z,-0.40
2018-02-13T06:47:44.749Z,-0.40
2018-02-13T06:48:18.423Z,-0.40
2018-02-13T06:48:52.098Z,-0.40
2018-02-13T06:49:26.539Z,-0.40
2018-02-13T06:50:00.209Z,-0.40
2018-02-13T06:50:34.181Z,-0.40
2018-02-13T06:51:08.622Z,-0.40
2018-02-13T06:51:42.290Z,-0.40
2018-02-13T06:52:16.843Z,-0.40
2018-02-13T06:52:50.539Z,-0.40
2018-02-13T06:53:24.211Z,-0.40
2018-02-13T06:53:57.893Z,-0.30
2018-02-13T06:54:31.581Z,-0.30
2018-02-13T06:55:05.265Z,-0.30
2018-02-13T06:55:39.228Z,-0.30
2018-02-13T06:56:13.666Z,-0.30
2018-02-13T06:56:47.341Z,-0.30
2018-02-13T06:57:21.783Z,-0.30
2018-02-13T06:57:55.469Z,-0.30
2018-02-13T06:58:29.155Z,-0.30
2018-02-13T06:59:02.850Z,-0.30
2018-02-13T06:59:36.518Z,-0.30
2018-02-13T07:00:10.200Z,-0.30
2018-02-13T07:00:44.921Z,-0.30
2018-02-13T07:01:18.595Z,-0.30
2018-02-13T07:01:53.042Z,-0.20
2018-02-13T07:02:26.713Z,-0.30
2018-02-13T07:03:00.434Z,-0.30
2018-02-13T07:03:33.935Z,-0.20
2018-02-13T07:04:07.600Z,-0.20
2018-02-13T07:04:41.293Z,-0.20
2018-02-13T07:05:14.981Z,-0.20
2018-02-13T07:05:48.938Z,-0.20
2018-02-13T07:06:23.382Z,-0.20
2018-02-13T07:06:57.062Z,-0.20
2018-02-13T07:07:30.734Z,-0.20
2018-02-13T07:08:04.389Z,-0.20
2018-02-13T07:08:38.063Z,-0.20
2018-02-13T07:09:11.730Z,-0.10
2018-02-13T07:09:45.441Z,-0.10
2018-02-13T07:10:19.133Z,-0.10
2018-02-13T07:10:52.662Z,-0.10
2018-02-13T07:11:26.388Z,-0.10
2018-02-13T07:12:00.203Z,-0.10
2018-02-13T07:12:33.873Z,-0.10
2018-02-13T07:13:08.166Z,-0.10
2018-02-13T07:13:41.835Z,-0.10
2018-02-13T07:14:16.269Z,-0.10
2018-02-13T07:14:49.925Z,-0.10
2018-02-13T07:15:23.586Z,0.00
2018-02-13T07:15:57.611Z,0.00
2018-02-13T07:16:31.287Z,0.00
2018-02-13T07:17:05.717Z,0.00
2018-02-13T07:17:39.424Z,0.00
2018-02-13T07:18:14.009Z,0.00
2018-02-13T07:18:48.454Z,0.00
2018-02-13T07:19:22.125Z,0.00
2018-02-13T07:19:55.813Z,0.00
2018-02-13T07:20:29.490Z,0.10
2018-02-13T07:21:03.177Z,0.00
2018-02-13T07:21:37.614Z,0.10
2018-02-13T07:22:11.097Z,0.10
2018-02-13T07:22:44.766Z,0.10
2018-02-13T07:23:18.418Z,0.10
2018-02-13T07:23:52.094Z,0.10
2018-02-13T07:24:25.765Z,0.10